Extrem niedrige Temperatur Gültig von: 11-12-2018 14:08 bis: 12-12-2018 11:00 Warnung für: Extrem niedrige Temperatur Gefahrenstufe: Gelb info button
deutsch:
Es tritt leichter Frost zwischen 0 °C und -3 °C auf. 

Besuchen Sie unsere anderen Wetter Stationen:

Template documentation
and downloads

And another site



METAR-Meldungen aus der Umgebung


Warning: A non-numeric value encountered in /is/htdocs/wp10906056_0YHW7Q9XB7/www/weather28/metar/metarDisplay.php on line 166
   
EBAW - Antwerp
Aktualisierung: 11-12-2018 15:20
Teilweise bewölkt  
Teilweise bewölkt  
   Wind: Westen 9.3 km/h
Wind: Westen 9.3 km/h
Temperatur: 7°C
Gefühlt: 5°C
Taupunkt: 2°C
Luftfeuchte: 71%
Luftdruck: 1024 hPa
Bewölkt: Teilweise bewölkt
Sichtbarkeit: More than 10 km
Bewölkung: leicht bewölkt 2700 ft,
Teilweise bewölkt 3200 ft
EBAW 111420Z 26005KT 9999 FEW027 SCT032 07/02 Q1024 NOSIG
EBLG - Liège
Aktualisierung: 11-12-2018 15:20
Stark bewölkt  
Stark bewölkt  
   Wind: WNW 9.3 km/h<br />Gust to 9.3 km/h
Wind: WNW 9.3 km/h
Gust to 9.3 km/h
Temperatur: 5°C
Gefühlt: 3°C
Taupunkt: 2°C
Luftfeuchte: 81%
Luftdruck: 1024 hPa
Bewölkt: Stark bewölkt
Sichtbarkeit: More than 10 km
Bewölkung: leicht bewölkt 2300 ft,
Stark bewölkt 4200 ft
EBLG 111420Z 29005G15KT 240V330 9999 FEW023 BKN042 05/02 Q1024 NOSIG
EBCV - Mons/Bergen
Aktualisierung: 11-12-2018 14:55
Stark bewölkt  
Stark bewölkt  
   Wind: variiert 3.7 km/h
Wind: variiert 3.7 km/h
Temperatur: 5°C
Taupunkt: 4°C
Luftfeuchte: 93%
Luftdruck: 1025 hPa
Bewölkt: Stark bewölkt
Sichtbarkeit: 8 km
Bewölkung: Stark bewölkt 4300 ft
EBCV 111355Z AUTO VRB02KT 8000 BKN043/// 05/04 Q1025 BLU
EHBK - Maastricht
Aktualisierung: 11-12-2018 15:25
Bewölkt  
Bewölkt  
   Wind: Westen 5.6 km/h
Wind: Westen 5.6 km/h
Temperatur: 6°C
Gefühlt: 5°C
Taupunkt: 2°C
Luftfeuchte: 76%
Luftdruck: 1023 hPa
Bewölkt: Bewölkt
Sichtbarkeit: More than 10 km
Bewölkung: Stark bewölkt 2400 ft,
Stark bewölkt 2800 ft,
Bewölkt 3300 ft
EHBK 111425Z AUTO 27003KT 240V330 9999 BKN024 BKN028 OVC033 06/02 Q1023 NOSIG
ELLX - Luxemburg
Aktualisierung: 11-12-2018 15:20
Klar  
Klar  
   Wind: WNW 14.8 km/h
Wind: WNW 14.8 km/h
Temperatur: 5°C
Gefühlt: 2°C
Taupunkt: -1°C
Luftfeuchte: 66%
Luftdruck: 1023 hPa
Sichtbarkeit: More than 10 km
Bewölkung: Klar
ELLX 111420Z 30008KT 270V340 CAVOK 05/M01 Q1023 NOSIG
EBOS - Oostende
Aktualisierung: 11-12-2018 15:20
Teilweise bewölkt  
Teilweise bewölkt  
   Wind: WNW 7.4 km/h
Wind: WNW 7.4 km/h
Temperatur: 7°C
Gefühlt: 6°C
Taupunkt: 2°C
Luftfeuchte: 71%
Luftdruck: 1025 hPa
Bewölkt: Teilweise bewölkt
Sichtbarkeit: More than 10 km
Bewölkung: Teilweise bewölkt 3200 ft
EBOS 111420Z 30004KT 9999 SCT032 07/02 Q1025 NOSIG

Script entwickelt von  Saratoga-weather.org Angepasst für das Template von  Weerstation Leuven

Sie finden unser Wetter-Infos auch auf:

netzwerkwettercom

European Weather Network

WeatherCloud

Weather Underground

AWEKAS

Citizen Weather Observer Program (CWOP)

HAMweather, WeatherForYou, PWS Weather

Von uns verwendete Ausrüstung:

Wetterstation
Davis VP2 Aktiv Plus 6163EU

Wetterprogramm
Weather Display

Davis VP2 Aktiv Plus  6163EU

Weather Display